createdAt,value
2018-08-23T00:02:16.711Z,1.67
2018-08-23T00:04:45.461Z,1.60
2018-08-23T00:07:16.026Z,1.90
2018-08-23T00:09:46.366Z,1.67
2018-08-23T00:12:14.954Z,1.40
2018-08-23T00:14:43.503Z,1.90
2018-08-23T00:17:12.046Z,1.80
2018-08-23T00:19:40.847Z,1.50
2018-08-23T00:22:11.953Z,1.50
2018-08-23T00:24:40.502Z,1.75
2018-08-23T00:27:09.321Z,1.50
2018-08-23T00:29:37.841Z,1.35
2018-08-23T00:32:08.371Z,1.82
2018-08-23T00:34:38.126Z,1.62
2018-08-23T00:37:07.792Z,1.40
2018-08-23T00:39:36.399Z,1.90
2018-08-23T00:42:07.266Z,1.55
2018-08-23T00:44:51.477Z,1.10
2018-08-23T00:47:20.424Z,1.85
2018-08-23T00:49:49.123Z,1.60
2018-08-23T00:52:18.440Z,1.90
2018-08-23T00:54:46.992Z,1.67
2018-08-23T00:57:15.551Z,1.70
2018-08-23T00:59:49.209Z,1.60
2018-08-23T01:02:17.421Z,1.80
2018-08-23T01:04:46.913Z,1.75
2018-08-23T01:07:27.444Z,1.72
2018-08-23T01:09:57.452Z,1.65
2018-08-23T01:12:26.119Z,1.35
2018-08-23T01:14:54.679Z,1.72
2018-08-23T01:17:23.255Z,1.25
2018-08-23T01:20:00.306Z,1.52
2018-08-23T01:22:29.191Z,1.92
2018-08-23T01:25:00.751Z,1.70
2018-08-23T01:27:34.888Z,1.57
2018-08-23T01:30:03.533Z,1.95
2018-08-23T01:32:33.188Z,1.80
2018-08-23T01:35:01.802Z,1.85
2018-08-23T01:37:40.303Z,1.92
2018-08-23T01:40:09.816Z,1.50
2018-08-23T01:42:39.651Z,1.80
2018-08-23T01:45:09.820Z,2.33
2018-08-23T01:47:44.245Z,1.95
2018-08-23T01:50:13.806Z,1.90
2018-08-23T01:52:53.009Z,1.32
2018-08-23T01:55:22.679Z,1.72
2018-08-23T01:57:51.963Z,2.22
2018-08-23T02:00:23.026Z,1.90
2018-08-23T02:02:51.703Z,1.50
2018-08-23T02:05:20.300Z,1.92
2018-08-23T02:07:48.883Z,1.72
2018-08-23T02:10:17.451Z,1.60
2018-08-23T02:12:50.680Z,1.90
2018-08-23T02:15:19.710Z,1.70
2018-08-23T02:17:53.342Z,1.65
2018-08-23T02:20:22.771Z,1.40
2018-08-23T02:22:51.854Z,1.70
2018-08-23T02:25:20.547Z,1.57
2018-08-23T02:28:00.490Z,1.50
2018-08-23T02:30:43.733Z,2.10
2018-08-23T02:33:13.359Z,2.20
2018-08-23T02:35:51.942Z,1.85
2018-08-23T02:38:20.613Z,2.10
2018-08-23T02:40:49.215Z,1.77
2018-08-23T02:43:17.807Z,2.25
2018-08-23T02:45:51.883Z,1.27
2018-08-23T02:48:21.158Z,1.50
2018-08-23T02:50:50.511Z,1.72
2018-08-23T02:53:46.207Z,1.92
2018-08-23T02:56:17.714Z,2.10
2018-08-23T02:58:59.649Z,1.80
2018-08-23T03:01:30.147Z,2.12
2018-08-23T03:04:07.640Z,2.12
2018-08-23T03:06:55.546Z,2.00
2018-08-23T03:09:26.203Z,1.80
2018-08-23T03:11:56.975Z,2.67
2018-08-23T03:14:26.477Z,2.22
2018-08-23T03:17:29.788Z,1.95
2018-08-23T03:20:03.203Z,2.15
2018-08-23T03:22:32.883Z,1.40
2018-08-23T03:25:03.657Z,1.55
2018-08-23T03:27:32.895Z,1.67
2018-08-23T03:30:02.439Z,1.70
2018-08-23T03:32:31.721Z,1.60
2018-08-23T03:35:00.815Z,1.95
2018-08-23T03:37:29.405Z,1.80
2018-08-23T03:39:58.402Z,1.90
2018-08-23T03:42:27.697Z,1.82
2018-08-23T03:44:57.404Z,1.75
2018-08-23T03:47:26.572Z,1.70
2018-08-23T03:49:55.108Z,2.25
2018-08-23T03:52:29.109Z,1.50
2018-08-23T03:54:58.963Z,2.17
2018-08-23T03:57:32.931Z,2.52
2018-08-23T04:00:01.653Z,1.85
2018-08-23T04:02:30.229Z,2.20
2018-08-23T04:05:09.340Z,1.50
2018-08-23T04:07:39.238Z,1.87
2018-08-23T04:10:08.128Z,2.05
2018-08-23T04:12:38.327Z,2.08
2018-08-23T04:15:21.509Z,1.60
2018-08-23T04:17:50.669Z,2.50
2018-08-23T04:20:19.562Z,1.62
2018-08-23T04:22:48.157Z,1.80
2018-08-23T04:25:16.753Z,1.90
2018-08-23T04:27:45.372Z,1.98
2018-08-23T04:30:13.980Z,2.05
2018-08-23T04:32:45.870Z,1.87
2018-08-23T04:35:33.633Z,1.75
2018-08-23T04:38:02.627Z,2.02
2018-08-23T04:40:31.339Z,2.33
2018-08-23T04:43:00.184Z,1.60
2018-08-23T04:45:31.003Z,2.20
2018-08-23T04:48:08.071Z,2.05
2018-08-23T04:50:37.828Z,1.87
2018-08-23T04:53:06.577Z,1.77
2018-08-23T04:57:04.599Z,1.90
2018-08-23T04:59:33.472Z,2.10
2018-08-23T05:02:02.064Z,1.90
2018-08-23T05:04:30.929Z,2.27
2018-08-23T05:06:59.540Z,1.80
2018-08-23T05:09:28.159Z,1.65
2018-08-23T05:11:57.042Z,1.90
2018-08-23T05:14:25.668Z,1.87
2018-08-23T05:16:54.291Z,2.30
2018-08-23T05:19:22.875Z,1.50
2018-08-23T05:21:51.471Z,1.60
2018-08-23T05:24:23.270Z,2.45
2018-08-23T05:26:51.994Z,2.30
2018-08-23T05:29:20.566Z,2.08
2018-08-23T05:31:49.135Z,2.12
2018-08-23T05:34:17.703Z,2.62
2018-08-23T05:36:46.258Z,1.80
2018-08-23T05:39:15.316Z,2.70
2018-08-23T05:41:43.887Z,2.40
2018-08-23T05:44:16.735Z,1.85
2018-08-23T05:46:57.678Z,2.60
2018-08-23T05:49:27.187Z,2.08
2018-08-23T05:51:58.276Z,2.62
2018-08-23T05:54:26.863Z,2.27
2018-08-23T05:56:55.838Z,2.58
2018-08-23T05:59:24.950Z,2.27
2018-08-23T06:01:53.734Z,2.10
2018-08-23T06:04:33.335Z,2.98
2018-08-23T06:07:02.114Z,2.20
2018-08-23T06:09:30.895Z,2.12
2018-08-23T06:11:59.511Z,3.08
2018-08-23T06:14:28.053Z,2.80
2018-08-23T06:16:57.441Z,2.52
2018-08-23T06:19:27.138Z,2.50
2018-08-23T06:21:55.855Z,2.30
2018-08-23T06:24:28.397Z,3.08
2018-08-23T06:26:59.164Z,2.60
2018-08-23T06:29:29.907Z,3.17
2018-08-23T06:32:10.448Z,2.12
2018-08-23T06:34:48.186Z,2.35
2018-08-23T06:37:17.432Z,2.75
2018-08-23T06:39:46.147Z,3.17
2018-08-23T06:42:14.727Z,2.37
2018-08-23T06:44:52.288Z,2.45
2018-08-23T06:47:22.438Z,2.12
2018-08-23T06:49:52.543Z,2.67
2018-08-23T06:52:36.430Z,2.98
2018-08-23T06:55:05.523Z,2.80
2018-08-23T06:57:41.379Z,2.50
2018-08-23T07:00:10.221Z,3.45
2018-08-23T07:02:44.146Z,2.67
2018-08-23T07:05:12.755Z,2.75
2018-08-23T07:07:41.363Z,2.50
2018-08-23T07:10:11.240Z,2.70
2018-08-23T07:12:40.204Z,2.52
2018-08-23T07:15:08.829Z,2.15
2018-08-23T07:17:37.626Z,2.37
2018-08-23T07:20:09.385Z,2.52
2018-08-23T07:22:38.046Z,1.98
2018-08-23T07:25:10.570Z,2.58
2018-08-23T07:27:39.158Z,2.20
2018-08-23T07:30:12.491Z,3.00
2018-08-23T07:32:42.062Z,3.50
2018-08-23T07:35:14.223Z,3.10
2018-08-23T07:37:44.136Z,2.98
2018-08-23T07:40:18.895Z,2.30
2018-08-23T07:42:48.782Z,1.95
2018-08-23T07:45:17.379Z,2.27
2018-08-23T07:47:47.437Z,2.80
2018-08-23T07:50:16.050Z,2.65
2018-08-23T07:52:46.071Z,2.95
2018-08-23T07:55:14.710Z,2.65
2018-08-23T07:57:43.783Z,2.70
2018-08-23T08:00:38.884Z,2.08
2018-08-23T08:03:08.189Z,2.10
2018-08-23T08:05:38.153Z,2.27
2018-08-23T08:08:08.003Z,2.87
2018-08-23T08:10:38.369Z,1.82
2018-08-23T08:13:06.971Z,2.52
2018-08-23T08:15:35.542Z,3.05
2018-08-23T08:18:11.541Z,2.55
2018-08-23T08:20:40.398Z,2.35
2018-08-23T08:23:08.976Z,2.50
2018-08-23T08:25:38.395Z,2.20
2018-08-23T08:28:13.847Z,2.12
2018-08-23T08:30:44.231Z,2.40
2018-08-23T08:33:17.054Z,2.15
2018-08-23T08:35:46.471Z,2.70
2018-08-23T08:38:15.451Z,2.62
2018-08-23T08:40:44.074Z,2.77
2018-08-23T08:43:12.637Z,2.40
2018-08-23T08:45:41.239Z,2.33
2018-08-23T08:48:18.216Z,1.98
2018-08-23T08:51:02.207Z,2.20
2018-08-23T08:53:32.055Z,2.00
2018-08-23T08:56:00.903Z,1.82
2018-08-23T08:58:29.631Z,2.60
2018-08-23T09:00:58.219Z,1.85
2018-08-23T09:03:31.235Z,1.60
2018-08-23T09:05:59.823Z,1.90
2018-08-23T09:08:28.383Z,1.90
2018-08-23T09:10:57.122Z,1.72
2018-08-23T09:13:31.160Z,1.95
2018-08-23T09:16:03.454Z,1.42
2018-08-23T09:18:32.011Z,1.45
2018-08-23T09:21:00.763Z,1.70
2018-08-23T09:23:29.339Z,1.87
2018-08-23T09:25:58.732Z,1.65
2018-08-23T09:28:27.569Z,1.80
2018-08-23T09:30:56.148Z,1.40
2018-08-23T09:33:26.193Z,2.50
2018-08-23T09:35:54.796Z,1.65
2018-08-23T09:38:23.720Z,1.82
2018-08-23T09:40:52.340Z,1.80
2018-08-23T09:43:20.935Z,1.37
2018-08-23T09:45:49.595Z,1.70
2018-08-23T09:48:18.399Z,1.67
2018-08-23T09:50:47.011Z,1.30
2018-08-23T09:53:20.880Z,1.30
2018-08-23T09:55:51.353Z,2.80
2018-08-23T09:58:53.981Z,1.25
2018-08-23T10:01:27.847Z,1.60
2018-08-23T10:04:01.871Z,1.57
2018-08-23T10:06:35.838Z,0.98
2018-08-23T10:09:16.189Z,1.75
2018-08-23T10:18:41.291Z,1.15
2018-08-23T10:21:09.879Z,1.45
2018-08-23T10:23:38.482Z,1.40
2018-08-23T10:26:22.363Z,1.40
2018-08-23T10:28:51.186Z,1.60
2018-08-23T10:31:19.779Z,1.05
2018-08-23T10:33:48.344Z,1.30
2018-08-23T10:36:16.922Z,1.30
2018-08-23T10:38:45.839Z,1.40
2018-08-23T10:41:14.397Z,1.30
2018-08-23T10:43:48.382Z,1.00
2018-08-23T10:46:16.955Z,1.50
2018-08-23T10:48:45.521Z,1.30
2018-08-23T10:51:14.117Z,1.40
2018-08-23T10:53:42.644Z,1.70
2018-08-23T10:56:11.221Z,1.13
2018-08-23T10:58:39.775Z,1.60
2018-08-23T11:01:08.439Z,1.73
2018-08-23T11:03:37.002Z,1.40
2018-08-23T11:06:05.729Z,1.47
2018-08-23T11:08:36.303Z,1.30
2018-08-23T11:11:10.192Z,1.17
2018-08-23T11:13:44.036Z,1.27
2018-08-23T11:16:18.079Z,1.30
2018-08-23T11:18:52.507Z,1.67
2018-08-23T11:21:21.103Z,1.30
2018-08-23T11:23:49.855Z,1.20
2018-08-23T11:26:20.563Z,1.03
2018-08-23T11:28:49.661Z,1.10
2018-08-23T11:31:23.431Z,1.00
2018-08-23T11:33:52.245Z,1.20
2018-08-23T11:36:20.903Z,0.93
2018-08-23T11:38:49.837Z,1.07
2018-08-23T11:41:18.806Z,1.30
2018-08-23T11:43:47.795Z,1.17
2018-08-23T11:46:18.534Z,1.30
2018-08-23T11:48:47.832Z,1.30
2018-08-23T11:51:17.239Z,1.00
2018-08-23T11:53:46.489Z,1.00
2018-08-23T11:56:15.299Z,1.27
2018-08-23T11:58:43.978Z,1.27
2018-08-23T12:01:14.134Z,1.20
2018-08-23T12:03:43.221Z,1.23
2018-08-23T12:06:12.932Z,1.00
2018-08-23T12:08:42.041Z,1.20
2018-08-23T12:11:10.718Z,1.17
2018-08-23T12:13:39.610Z,1.07
2018-08-23T12:16:09.928Z,1.17
2018-08-23T12:18:39.414Z,1.60
2018-08-23T12:21:08.098Z,1.13
2018-08-23T12:23:36.839Z,1.20
2018-08-23T12:26:05.543Z,0.90
2018-08-23T12:28:39.342Z,1.10
2018-08-23T12:31:08.095Z,1.20
2018-08-23T12:33:36.689Z,1.30
2018-08-23T12:36:07.918Z,1.27
2018-08-23T12:38:41.797Z,1.40
2018-08-23T12:41:15.928Z,2.30
2018-08-23T12:43:51.841Z,2.20
2018-08-23T12:46:20.516Z,1.80
2018-08-23T12:48:53.319Z,2.30
2018-08-23T12:51:21.946Z,3.13
2018-08-23T12:53:50.497Z,2.87
2018-08-23T12:56:19.265Z,2.27
2018-08-23T12:58:47.819Z,2.80
2018-08-23T13:01:16.381Z,4.23
2018-08-23T13:03:44.939Z,2.80
2018-08-23T13:06:13.555Z,3.67
2018-08-23T13:08:42.110Z,3.33
2018-08-23T13:11:10.754Z,3.50
2018-08-23T13:13:39.354Z,4.00
2018-08-23T13:16:07.913Z,3.60
2018-08-23T13:18:36.575Z,2.70
2018-08-23T13:21:05.174Z,2.97
2018-08-23T13:23:33.774Z,3.57
2018-08-23T13:26:02.363Z,3.97
2018-08-23T13:28:30.911Z,3.70
2018-08-23T13:30:59.485Z,4.50
2018-08-23T13:33:28.064Z,3.87
2018-08-23T13:35:57.025Z,4.03
2018-08-23T13:38:25.612Z,3.70
2018-08-23T13:40:54.175Z,4.20
2018-08-23T13:43:22.826Z,3.73
2018-08-23T13:45:51.528Z,4.20
2018-08-23T13:48:20.146Z,4.23
2018-08-23T13:50:48.715Z,4.73
2018-08-23T13:53:17.260Z,4.53
2018-08-23T13:55:45.943Z,4.90
2018-08-23T13:58:14.787Z,4.50
2018-08-23T14:00:43.357Z,5.13
2018-08-23T14:03:12.297Z,4.60
2018-08-23T14:05:41.719Z,5.77
2018-08-23T14:08:10.706Z,5.27
2018-08-23T14:10:39.415Z,4.90
2018-08-23T14:13:08.524Z,4.73
2018-08-23T14:15:42.597Z,4.33
2018-08-23T14:18:11.240Z,4.43
2018-08-23T14:20:39.875Z,4.47
2018-08-23T14:23:08.438Z,5.10
2018-08-23T14:25:37.235Z,3.80
2018-08-23T14:28:06.355Z,4.17
2018-08-23T14:30:35.150Z,3.03
2018-08-23T14:33:03.803Z,3.30
2018-08-23T14:35:32.383Z,2.90
2018-08-23T14:38:01.000Z,3.40
2018-08-23T14:40:29.638Z,3.23
2018-08-23T14:42:58.174Z,3.50
2018-08-23T14:45:29.736Z,2.60
2018-08-23T14:48:04.078Z,2.60
2018-08-23T14:50:34.076Z,2.93
2018-08-23T14:53:03.033Z,2.47
2018-08-23T14:55:37.167Z,2.27
2018-08-23T14:58:06.342Z,2.27
2018-08-23T15:00:34.950Z,2.00
2018-08-23T15:03:03.841Z,1.53
2018-08-23T15:05:32.462Z,1.90
2018-08-23T15:08:01.022Z,1.63
2018-08-23T15:10:29.735Z,1.80
2018-08-23T15:12:58.489Z,1.40
2018-08-23T15:15:32.351Z,1.37
2018-08-23T15:18:01.032Z,1.30
2018-08-23T15:20:29.672Z,1.87
2018-08-23T15:22:58.259Z,1.53
2018-08-23T15:25:26.884Z,1.40
2018-08-23T15:27:55.515Z,1.77
2018-08-23T15:30:24.102Z,1.47
2018-08-23T15:32:52.756Z,1.83
2018-08-23T15:35:21.528Z,1.60
2018-08-23T15:37:50.099Z,1.37
2018-08-23T15:40:18.679Z,2.33
2018-08-23T15:42:47.275Z,2.00
2018-08-23T15:45:16.088Z,1.20
2018-08-23T15:47:44.675Z,1.40
2018-08-23T15:50:13.255Z,1.43
2018-08-23T15:52:41.859Z,1.80
2018-08-23T15:55:10.544Z,1.87
2018-08-23T15:57:39.645Z,1.67
2018-08-23T16:00:09.568Z,1.60
2018-08-23T16:02:38.316Z,1.13
2018-08-23T16:05:07.384Z,1.50
2018-08-23T16:07:35.997Z,1.00
2018-08-23T16:10:06.016Z,1.87
2018-08-23T16:12:34.815Z,1.50
2018-08-23T16:15:07.931Z,1.30
2018-08-23T16:17:41.739Z,3.40
2018-08-23T16:20:15.545Z,1.60
2018-08-23T16:22:44.644Z,1.20
2018-08-23T16:25:13.455Z,1.80
2018-08-23T16:27:42.166Z,2.03
2018-08-23T16:30:10.795Z,1.23
2018-08-23T16:32:39.407Z,1.97
2018-08-23T16:35:07.995Z,1.60
2018-08-23T16:37:36.652Z,1.70
2018-08-23T16:40:05.219Z,2.00
2018-08-23T16:42:33.835Z,1.80
2018-08-23T16:45:02.474Z,1.55
2018-08-23T16:47:31.067Z,1.65
2018-08-23T16:49:59.656Z,2.08
2018-08-23T16:52:28.221Z,1.70
2018-08-23T16:54:56.808Z,1.52
2018-08-23T16:57:25.578Z,1.67
2018-08-23T16:59:54.207Z,1.45
2018-08-23T17:02:23.095Z,1.30
2018-08-23T17:04:51.760Z,1.40
2018-08-23T17:07:20.444Z,1.05
2018-08-23T17:09:49.215Z,1.67
2018-08-23T17:12:17.790Z,1.55
2018-08-23T17:14:46.443Z,1.52
2018-08-23T17:17:20.402Z,2.15
2018-08-23T17:19:49.095Z,1.92
2018-08-23T17:22:17.655Z,1.80
2018-08-23T17:24:46.297Z,1.87
2018-08-23T17:27:15.027Z,2.70
2018-08-23T17:29:43.634Z,2.10
2018-08-23T17:32:12.231Z,1.45
2018-08-23T17:34:40.801Z,1.30
2018-08-23T17:37:09.359Z,1.87
2018-08-23T17:39:37.917Z,1.77
2018-08-23T17:42:06.606Z,1.67
2018-08-23T17:44:35.472Z,1.47
2018-08-23T17:47:04.079Z,1.70
2018-08-23T17:49:33.225Z,1.75
2018-08-23T17:52:02.278Z,1.95
2018-08-23T17:54:30.873Z,2.10
2018-08-23T17:56:59.488Z,2.42
2018-08-23T17:59:28.057Z,2.17
2018-08-23T18:01:56.831Z,2.17
2018-08-23T18:04:26.007Z,2.40
2018-08-23T18:06:54.621Z,2.15
2018-08-23T18:09:23.179Z,2.40
2018-08-23T18:11:51.755Z,2.60
2018-08-23T18:14:20.467Z,2.52
2018-08-23T18:16:54.403Z,2.83
2018-08-23T18:19:22.958Z,2.45
2018-08-23T18:21:51.529Z,2.00
2018-08-23T18:24:20.154Z,2.15
2018-08-23T18:26:48.704Z,2.20
2018-08-23T18:29:17.435Z,2.22
2018-08-23T18:31:46.028Z,2.27
2018-08-23T18:34:14.571Z,2.37
2018-08-23T18:36:43.326Z,2.95
2018-08-23T18:39:12.163Z,2.08
2018-08-23T18:41:40.764Z,2.52
2018-08-23T18:44:09.387Z,2.55
2018-08-23T18:46:37.932Z,2.25
2018-08-23T18:49:06.501Z,2.95
2018-08-23T18:51:35.052Z,2.55
2018-08-23T18:54:03.726Z,2.35
2018-08-23T18:56:32.237Z,2.08
2018-08-23T18:59:00.830Z,2.47
2018-08-23T19:01:29.442Z,2.27
2018-08-23T19:03:58.007Z,2.22
2018-08-23T19:06:31.846Z,2.50
2018-08-23T19:09:00.410Z,2.37
2018-08-23T19:11:29.008Z,2.45
2018-08-23T19:13:57.728Z,2.62
2018-08-23T19:16:31.526Z,3.15
2018-08-23T19:19:00.441Z,2.50
2018-08-23T19:21:28.967Z,2.22
2018-08-23T19:23:57.517Z,2.22
2018-08-23T19:26:26.080Z,2.50
2018-08-23T19:28:54.647Z,2.15
2018-08-23T19:31:23.371Z,2.50
2018-08-23T19:33:51.918Z,2.75
2018-08-23T19:36:20.571Z,2.30
2018-08-23T19:38:49.126Z,2.35
2018-08-23T19:41:17.682Z,3.45
2018-08-23T19:43:46.253Z,2.65
2018-08-23T19:46:20.177Z,3.12
2018-08-23T19:48:52.970Z,2.12
2018-08-23T19:51:21.534Z,2.77
2018-08-23T19:53:50.187Z,3.70
2018-08-23T19:56:18.830Z,2.60
2018-08-23T19:58:47.376Z,3.08
2018-08-23T20:01:15.931Z,2.27
2018-08-23T20:03:44.623Z,3.08
2018-08-23T20:06:13.495Z,2.37
2018-08-23T20:08:42.101Z,2.90
2018-08-23T20:11:10.666Z,3.45
2018-08-23T20:13:39.251Z,3.20
2018-08-23T20:16:07.843Z,3.37
2018-08-23T20:18:36.425Z,3.00
2018-08-23T20:21:04.995Z,2.50
2018-08-23T20:23:33.575Z,3.00
2018-08-23T20:26:02.145Z,3.08
2018-08-23T20:28:30.867Z,4.15
2018-08-23T20:30:59.523Z,3.17
2018-08-23T20:33:28.107Z,2.47
2018-08-23T20:35:56.713Z,3.15
2018-08-23T20:38:25.279Z,3.42
2018-08-23T20:40:53.861Z,3.37
2018-08-23T20:43:22.437Z,3.08
2018-08-23T20:45:51.008Z,3.60
2018-08-23T20:48:19.980Z,3.47
2018-08-23T20:50:48.524Z,3.45
2018-08-23T20:53:17.142Z,3.92
2018-08-23T20:55:45.676Z,2.95
2018-08-23T20:58:14.238Z,3.30
2018-08-23T21:00:42.803Z,3.17
2018-08-23T21:03:11.465Z,2.30
2018-08-23T21:05:40.065Z,3.25
2018-08-23T21:08:08.611Z,3.50
2018-08-23T21:10:37.175Z,3.12
2018-08-23T21:13:05.778Z,2.95
2018-08-23T21:15:37.315Z,3.60
2018-08-23T21:18:07.685Z,3.58
2018-08-23T21:20:36.279Z,3.60
2018-08-23T21:23:05.059Z,3.22
2018-08-23T21:25:33.640Z,3.30
2018-08-23T21:28:02.199Z,3.45
2018-08-23T21:30:30.886Z,3.60
2018-08-23T21:32:59.442Z,3.45
2018-08-23T21:35:27.996Z,3.75
2018-08-23T21:37:56.553Z,4.70
2018-08-23T21:40:25.095Z,3.58
2018-08-23T21:42:53.727Z,3.65
2018-08-23T21:45:22.394Z,4.20
2018-08-23T21:47:50.953Z,4.20
2018-08-23T21:50:19.522Z,3.45
2018-08-23T21:52:48.115Z,4.97
2018-08-23T21:55:16.787Z,4.17
2018-08-23T21:57:45.341Z,4.15
2018-08-23T22:00:13.971Z,3.90
2018-08-23T22:02:42.646Z,4.42
2018-08-23T22:05:11.195Z,3.72
2018-08-23T22:07:39.746Z,4.00
2018-08-23T22:10:08.313Z,4.42
2018-08-23T22:12:36.876Z,4.55
2018-08-23T22:15:05.758Z,4.17
2018-08-23T22:17:34.339Z,4.78
2018-08-23T22:20:02.899Z,4.20
2018-08-23T22:22:31.451Z,4.08
2018-08-23T22:25:00.002Z,4.05
2018-08-23T22:27:28.552Z,4.10
2018-08-23T22:29:57.102Z,4.20
2018-08-23T22:32:25.879Z,4.25
2018-08-23T22:34:54.434Z,4.15
2018-08-23T22:37:23.196Z,4.12
2018-08-23T22:39:51.759Z,4.10
2018-08-23T22:42:20.322Z,3.60
2018-08-23T22:44:48.891Z,4.05
2018-08-23T22:47:17.439Z,4.92
2018-08-23T22:49:46.291Z,4.45
2018-08-23T22:52:14.858Z,4.40
2018-08-23T22:54:43.475Z,4.45
2018-08-23T22:57:11.995Z,4.10
2018-08-23T22:59:40.614Z,3.95
2018-08-23T23:02:09.257Z,4.53
2018-08-23T23:04:37.814Z,4.08
2018-08-23T23:07:08.306Z,3.60
2018-08-23T23:09:36.894Z,4.15
2018-08-23T23:12:05.768Z,4.00
2018-08-23T23:14:34.538Z,3.90
2018-08-23T23:17:06.939Z,3.35
2018-08-23T23:19:35.499Z,4.25
2018-08-23T23:22:04.141Z,4.58
2018-08-23T23:24:38.063Z,4.08
2018-08-23T23:27:07.084Z,4.10
2018-08-23T23:29:35.669Z,3.80
2018-08-23T23:32:04.535Z,4.30
2018-08-23T23:34:33.125Z,4.12
2018-08-23T23:37:01.688Z,4.62
2018-08-23T23:39:30.269Z,4.70
2018-08-23T23:41:58.826Z,4.05
2018-08-23T23:44:27.419Z,4.85
2018-08-23T23:46:55.988Z,4.05
2018-08-23T23:49:24.557Z,5.05
2018-08-23T23:51:53.327Z,5.03
2018-08-23T23:54:21.939Z,3.65
2018-08-23T23:56:50.935Z,4.70
2018-08-23T23:59:19.488Z,3.67
